Time;durP1;ratioP1;P1;durP2;ratioP2;P2;SDS_P1;SDS_P2;PMS_P1;PMS_P2;Temp;Humidity;BMP_temperature;BMP_pressure;BME280_temperature;BME280_humidity;BME280_pressure;Samples;Min_cycle;Max_cycle;Signal;HPM_P1;HPM_P2
2023/12/09 00:00:46;;;;;;;8.07;4.00;;;6.30;99.90;;;;;;5068142;28;20291;-71
2023/12/09 00:03:11;;;;;;;9.67;4.70;;;6.30;99.90;;;;;;5068015;28;20269;-72
2023/12/09 00:05:37;;;;;;;6.10;3.40;;;6.30;99.90;;;;;;5066269;28;20222;-72
2023/12/09 00:08:03;;;;;;;7.83;3.77;;;6.30;99.90;;;;;;5068183;28;20667;-71
2023/12/09 00:10:28;;;;;;;5.80;2.37;;;6.30;99.90;;;;;;5068672;28;20380;-72
2023/12/09 00:12:54;;;;;;;10.23;3.10;;;6.30;99.90;;;;;;5068748;28;20437;-71
2023/12/09 00:15:20;;;;;;;10.90;3.57;;;6.30;99.90;;;;;;5067350;28;20187;-72
2023/12/09 00:17:46;;;;;;;5.93;2.73;;;6.30;99.90;;;;;;5068645;28;20495;-72
2023/12/09 00:20:12;;;;;;;6.80;2.77;;;6.30;99.90;;;;;;5067459;28;20242;-71
2023/12/09 00:22:38;;;;;;;7.43;3.33;;;6.30;99.90;;;;;;5067286;28;20219;-72
2023/12/09 00:25:06;;;;;;;6.40;3.37;;;6.30;99.90;;;;;;5067497;28;20452;-72
2023/12/09 00:27:31;;;;;;;12.63;3.23;;;6.30;99.90;;;;;;5067206;28;20441;-72
2023/12/09 00:29:57;;;;;;;8.93;2.73;;;6.30;99.90;;;;;;5068794;28;20426;-71
2023/12/09 00:32:22;;;;;;;8.60;2.77;;;6.30;99.90;;;;;;5068861;28;20222;-72
2023/12/09 00:34:48;;;;;;;9.13;2.43;;;6.30;99.90;;;;;;5069037;28;20187;-72
2023/12/09 00:37:14;;;;;;;6.80;2.90;;;6.30;99.90;;;;;;5068411;28;20210;-71
2023/12/09 00:39:39;;;;;;;13.40;2.63;;;6.30;99.90;;;;;;5066953;28;20215;-72
2023/12/09 00:42:05;;;;;;;14.33;3.70;;;6.30;99.90;;;;;;5067540;28;20211;-72
2023/12/09 00:44:30;;;;;;;9.20;2.27;;;6.20;99.90;;;;;;5068245;28;20183;-72
2023/12/09 00:46:56;;;;;;;7.43;2.47;;;6.10;99.90;;;;;;5067821;28;20857;-72
2023/12/09 00:49:21;;;;;;;5.23;2.30;;;6.10;99.90;;;;;;5067899;28;20267;-71
2023/12/09 00:51:47;;;;;;;2.80;1.90;;;6.10;99.90;;;;;;5066529;28;20273;-71
2023/12/09 00:54:12;;;;;;;4.90;2.70;;;6.10;99.90;;;;;;5067686;28;20194;-72
2023/12/09 00:56:38;;;;;;;5.70;2.07;;;6.20;99.90;;;;;;5066440;28;20207;-72
2023/12/09 00:59:05;;;;;;;7.50;2.90;;;6.20;99.90;;;;;;5069665;28;20195;-72
2023/12/09 01:01:30;;;;;;;11.10;3.10;;;6.10;99.90;;;;;;5071331;28;20582;-72
2023/12/09 01:03:56;;;;;;;6.60;3.07;;;6.20;99.90;;;;;;5071387;28;20418;-72
2023/12/09 01:06:21;;;;;;;10.83;3.10;;;6.20;99.90;;;;;;5071147;28;20206;-73
2023/12/09 01:08:47;;;;;;;7.43;2.33;;;6.20;99.90;;;;;;5069920;28;20237;-72
2023/12/09 01:11:13;;;;;;;6.23;2.40;;;6.20;99.90;;;;;;5069741;28;20187;-72
2023/12/09 01:13:38;;;;;;;12.07;2.70;;;6.20;99.90;;;;;;5071000;28;20289;-73
2023/12/09 01:16:04;;;;;;;12.60;2.80;;;6.30;99.90;;;;;;5070877;28;20211;-72
2023/12/09 01:18:30;;;;;;;8.30;2.00;;;6.20;99.90;;;;;;5070697;28;20684;-72
2023/12/09 01:20:55;;;;;;;12.00;2.80;;;6.30;99.90;;;;;;5069207;28;20469;-71
2023/12/09 01:23:21;;;;;;;3.50;1.50;;;6.20;99.90;;;;;;5069205;28;20207;-72
2023/12/09 01:25:47;;;;;;;8.67;2.47;;;6.20;99.90;;;;;;5069110;28;20187;-72
2023/12/09 01:28:12;;;;;;;6.47;2.80;;;6.20;99.90;;;;;;5069187;28;20187;-72
2023/12/09 01:30:38;;;;;;;4.60;1.53;;;6.10;99.90;;;;;;5070724;28;20191;-72
2023/12/09 01:33:03;;;;;;;10.77;2.30;;;6.00;99.90;;;;;;5070691;28;20567;-72
2023/12/09 01:35:29;;;;;;;5.60;1.80;;;5.90;99.90;;;;;;5070607;28;20198;-73
2023/12/09 01:37:54;;;;;;;7.63;2.43;;;5.90;99.90;;;;;;5069333;28;20213;-71
2023/12/09 01:40:21;;;;;;;10.13;2.47;;;5.90;99.90;;;;;;5069603;28;20207;-71
2023/12/09 01:42:46;;;;;;;4.37;1.90;;;6.00;99.90;;;;;;5070867;28;20180;-72
2023/12/09 01:45:12;;;;;;;10.83;2.43;;;6.00;99.90;;;;;;5070651;28;20425;-71
2023/12/09 01:47:39;;;;;;;5.97;1.50;;;6.10;99.90;;;;;;5070502;28;20203;-72
2023/12/09 01:50:06;;;;;;;6.53;1.50;;;6.10;99.90;;;;;;5052164;28;20664;-72
2023/12/09 01:52:32;;;;;;;8.03;1.73;;;6.30;99.90;;;;;;5070329;28;20436;-72
2023/12/09 01:54:59;;;;;;;5.67;1.60;;;6.40;99.90;;;;;;5069096;28;20830;-72
2023/12/09 01:57:25;;;;;;;6.80;1.87;;;6.50;99.90;;;;;;5068685;28;20320;-72
2023/12/09 01:59:51;;;;;;;7.83;1.70;;;6.60;99.90;;;;;;5070164;28;20461;-71
2023/12/09 02:02:17;;;;;;;6.63;2.03;;;6.70;99.90;;;;;;5070418;28;20420;-71
2023/12/09 02:04:42;;;;;;;6.37;2.27;;;6.70;99.90;;;;;;5052308;28;20734;-72
2023/12/09 02:07:08;;;;;;;2.93;1.50;;;6.80;99.90;;;;;;5052576;28;20226;-72
2023/12/09 02:09:35;;;;;;;9.27;2.53;;;6.90;99.90;;;;;;5069760;28;20187;-74
2023/12/09 02:12:29;;;;;;;6.63;2.00;;;6.90;99.90;;;;;;5070889;28;20179;-72
2023/12/09 02:15:14;;;;;;;11.03;2.40;;;6.90;99.90;;;;;;5062351;28;20957;-73
2023/12/09 02:18:01;;;;;;;5.77;1.70;;;6.90;99.90;;;;;;5070678;28;20432;-73
2023/12/09 02:20:27;;;;;;;8.50;2.00;;;6.90;99.90;;;;;;5068969;28;20544;-72
2023/12/09 02:23:09;;;;;;;7.77;1.60;;;6.90;99.90;;;;;;5070599;28;21006;-72
2023/12/09 02:25:35;;;;;;;7.50;2.33;;;6.90;99.90;;;;;;5070485;28;20422;-72
2023/12/09 02:28:16;;;;;;;12.13;2.37;;;7.00;99.90;;;;;;5068794;28;20421;-71
2023/12/09 02:30:52;;;;;;;11.13;2.80;;;6.90;99.90;;;;;;5068357;28;20430;-72
2023/12/09 02:33:21;;;;;;;7.73;2.10;;;6.90;99.90;;;;;;5068113;28;20423;-72
2023/12/09 02:35:49;;;;;;;8.50;2.20;;;7.00;99.90;;;;;;5069702;28;20456;-72
2023/12/09 02:38:16;;;;;;;5.93;1.70;;;7.00;99.90;;;;;;5068358;28;20475;-72
2023/12/09 02:40:43;;;;;;;8.30;2.30;;;7.00;99.90;;;;;;5067904;28;20503;-71
2023/12/09 02:43:09;;;;;;;9.80;2.33;;;7.00;99.90;;;;;;5069353;28;20425;-71
2023/12/09 02:45:36;;;;;;;11.43;2.33;;;7.00;99.90;;;;;;5069310;28;20417;-72
2023/12/09 02:48:03;;;;;;;10.33;2.00;;;6.90;99.90;;;;;;5051268;28;20479;-72
2023/12/09 02:50:29;;;;;;;5.70;2.00;;;6.90;99.90;;;;;;5069285;28;20432;-70
2023/12/09 02:52:55;;;;;;;10.80;3.00;;;6.90;99.90;;;;;;5069275;28;20425;-72
2023/12/09 02:55:20;;;;;;;5.93;1.97;;;6.80;99.90;;;;;;5067539;28;20518;-72
2023/12/09 02:57:46;;;;;;;10.27;2.67;;;6.80;99.90;;;;;;5067515;28;20973;-72
2023/12/09 03:00:12;;;;;;;5.77;2.37;;;6.80;99.90;;;;;;5068906;28;20834;-73
2023/12/09 03:02:37;;;;;;;10.30;2.00;;;6.80;99.90;;;;;;5067660;28;20171;-73
2023/12/09 03:05:03;;;;;;;4.63;1.43;;;6.80;99.90;;;;;;5068873;28;20415;-71
2023/12/09 03:07:29;;;;;;;4.00;1.60;;;6.80;99.90;;;;;;5068657;28;20703;-72
2023/12/09 03:09:54;;;;;;;6.37;1.90;;;6.70;99.90;;;;;;5050601;28;20797;-72
2023/12/09 03:12:20;;;;;;;14.60;2.07;;;6.70;99.90;;;;;;5068646;28;20217;-72
2023/12/09 03:14:46;;;;;;;3.93;1.30;;;6.70;99.90;;;;;;5068575;28;20190;-72
2023/12/09 03:17:11;;;;;;;4.27;2.00;;;6.70;99.90;;;;;;5068410;28;20210;-72
2023/12/09 03:19:37;;;;;;;4.60;1.77;;;6.80;99.90;;;;;;5068242;28;20727;-72
2023/12/09 03:22:03;;;;;;;6.20;1.93;;;6.80;99.90;;;;;;5066956;28;20203;-73
2023/12/09 03:24:29;;;;;;;7.00;2.00;;;6.80;99.90;;;;;;5068501;28;20190;-72
2023/12/09 03:26:54;;;;;;;14.60;2.10;;;6.80;99.90;;;;;;5068636;28;20195;-72
2023/12/09 03:29:21;;;;;;;5.83;1.60;;;6.80;99.90;;;;;;5068399;28;20420;-72
2023/12/09 03:31:48;;;;;;;2.93;1.40;;;6.80;99.90;;;;;;5068264;28;20178;-72
2023/12/09 03:34:14;;;;;;;5.60;1.87;;;6.90;99.90;;;;;;5066835;28;20504;-71
2023/12/09 03:36:40;;;;;;;8.60;2.40;;;6.90;99.90;;;;;;5068187;28;20433;-73
2023/12/09 03:39:06;;;;;;;40.77;19.10;;;6.90;99.90;;;;;;5068172;28;20405;-72
2023/12/09 03:41:33;;;;;;;47.33;20.63;;;7.00;99.90;;;;;;5068249;28;20472;-73
2023/12/09 03:43:58;;;;;;;15.10;4.17;;;6.90;99.90;;;;;;5068308;28;20475;-70
2023/12/09 03:46:24;;;;;;;10.57;2.00;;;6.90;99.90;;;;;;5068052;28;20433;-72
2023/12/09 03:48:50;;;;;;;6.43;1.93;;;6.90;99.90;;;;;;5066518;28;20677;-73
2023/12/09 03:51:15;;;;;;;11.00;1.60;;;6.90;99.90;;;;;;5068290;28;20186;-72
2023/12/09 03:53:42;;;;;;;4.33;1.90;;;6.90;99.90;;;;;;5068391;28;20191;-72
2023/12/09 03:56:09;;;;;;;7.80;2.57;;;6.90;99.90;;;;;;5068150;28;20226;-71
2023/12/09 03:58:36;;;;;;;3.70;1.27;;;6.90;99.90;;;;;;5068348;28;20425;-72
2023/12/09 04:01:02;;;;;;;8.63;2.10;;;6.90;99.90;;;;;;5068758;28;20476;-72
2023/12/09 04:03:27;;;;;;;8.20;1.53;;;6.80;99.90;;;;;;5068238;28;20418;-73
2023/12/09 04:05:53;;;;;;;5.03;1.20;;;6.90;99.90;;;;;;5066746;28;20433;-73
2023/12/09 04:08:19;;;;;;;9.83;2.30;;;6.90;99.90;;;;;;5068299;28;20180;-73
2023/12/09 04:10:44;;;;;;;6.67;1.33;;;6.80;99.90;;;;;;5067999;28;20783;-73
2023/12/09 04:13:10;;;;;;;6.77;1.40;;;6.70;99.90;;;;;;5068238;28;20206;-73
2023/12/09 04:15:38;;;;;;;6.60;1.57;;;6.70;99.90;;;;;;5068144;28;20179;-73
2023/12/09 04:18:04;;;;;;;3.37;1.53;;;6.60;99.90;;;;;;5068327;28;20688;-72
2023/12/09 04:20:30;;;;;;;6.67;1.37;;;6.60;99.90;;;;;;5068119;28;20823;-72
2023/12/09 04:22:55;;;;;;;6.67;2.10;;;6.40;99.90;;;;;;5068239;28;20429;-72
2023/12/09 04:25:21;;;;;;;2.90;1.30;;;6.30;99.90;;;;;;5068352;28;20190;-72
2023/12/09 04:27:47;;;;;;;5.33;1.70;;;6.30;99.90;;;;;;5050321;28;20199;-72
2023/12/09 04:30:13;;;;;;;4.00;1.43;;;6.30;99.90;;;;;;5067224;28;20185;-71
2023/12/09 04:32:39;;;;;;;3.63;1.83;;;6.30;99.90;;;;;;5068730;28;20519;-72
2023/12/09 04:35:05;;;;;;;6.13;1.60;;;6.20;99.90;;;;;;5071298;28;20186;-72
2023/12/09 04:37:30;;;;;;;3.93;1.37;;;6.20;99.90;;;;;;5072594;28;20211;-72
2023/12/09 04:39:56;;;;;;;8.70;2.50;;;6.20;99.90;;;;;;5071068;28;21021;-71
2023/12/09 04:42:21;;;;;;;3.67;1.57;;;6.10;99.90;;;;;;5054710;28;20186;-72
2023/12/09 04:44:47;;;;;;;4.90;1.90;;;6.10;99.90;;;;;;5071311;28;20205;-72
2023/12/09 04:47:13;;;;;;;3.47;1.70;;;6.00;99.90;;;;;;5072497;28;20211;-73
2023/12/09 04:49:38;;;;;;;11.83;1.30;;;6.00;99.90;;;;;;5071134;28;20190;-72
2023/12/09 04:52:04;;;;;;;6.20;1.57;;;6.00;99.90;;;;;;5072106;28;20171;-71
2023/12/09 04:54:30;;;;;;;3.43;1.20;;;6.00;99.90;;;;;;5053901;28;20202;-71
2023/12/09 04:56:56;;;;;;;9.33;1.63;;;5.90;99.90;;;;;;5071864;28;20528;-71
2023/12/09 04:59:22;;;;;;;6.93;2.00;;;5.90;99.90;;;;;;5070029;28;20425;-72
2023/12/09 05:01:48;;;;;;;4.30;1.83;;;5.90;99.90;;;;;;5071326;28;20187;-71
2023/12/09 05:04:14;;;;;;;9.67;1.90;;;5.90;99.90;;;;;;5069904;28;20444;-71
2023/12/09 05:06:40;;;;;;;9.07;1.80;;;5.80;99.90;;;;;;5071012;28;20195;-71
2023/12/09 05:09:05;;;;;;;7.23;1.77;;;5.80;99.90;;;;;;5071004;28;20463;-71
2023/12/09 05:11:34;;;;;;;6.03;2.50;;;5.90;99.90;;;;;;5070944;28;20255;-71
2023/12/09 05:13:59;;;;;;;8.63;2.30;;;5.90;99.90;;;;;;5071071;28;20825;-71
2023/12/09 05:16:25;;;;;;;2.90;1.53;;;5.90;99.90;;;;;;5070805;28;20441;-72
2023/12/09 05:18:52;;;;;;;7.83;1.57;;;5.90;99.90;;;;;;5069398;28;20179;-71
2023/12/09 05:21:17;;;;;;;5.93;1.80;;;5.90;99.90;;;;;;5052718;28;20507;-71
2023/12/09 05:23:43;;;;;;;5.67;2.50;;;5.80;99.90;;;;;;5070761;28;20857;-71
2023/12/09 05:26:09;;;;;;;2.67;1.80;;;5.70;99.90;;;;;;5070555;28;20281;-71
2023/12/09 05:28:35;;;;;;;3.23;1.77;;;5.60;99.90;;;;;;5071022;28;20652;-71
2023/12/09 05:31:01;;;;;;;5.57;2.10;;;5.60;99.90;;;;;;5070423;28;20203;-71
2023/12/09 05:33:26;;;;;;;6.73;1.70;;;5.50;99.90;;;;;;5052255;28;20453;-71
2023/12/09 05:35:52;;;;;;;8.30;2.20;;;5.50;99.90;;;;;;5070414;28;20209;-71
2023/12/09 05:38:17;;;;;;;6.87;2.90;;;5.40;99.90;;;;;;5070411;28;20556;-71
2023/12/09 05:40:43;;;;;;;10.60;1.63;;;5.30;99.90;;;;;;5069135;28;20206;-72
2023/12/09 05:43:09;;;;;;;4.67;1.47;;;5.20;99.90;;;;;;5070838;28;20705;-72
2023/12/09 05:45:34;;;;;;;6.20;1.83;;;5.20;99.90;;;;;;5069396;28;20625;-71
2023/12/09 05:48:00;;;;;;;6.60;1.90;;;5.20;99.90;;;;;;5069289;28;20967;-71
2023/12/09 05:50:25;;;;;;;6.43;2.47;;;5.10;99.90;;;;;;5069219;28;20197;-71
2023/12/09 05:52:51;;;;;;;3.97;2.33;;;5.10;99.90;;;;;;5069181;28;20183;-72
2023/12/09 05:55:17;;;;;;;9.80;2.23;;;5.00;99.90;;;;;;5070230;28;20195;-72
2023/12/09 05:57:43;;;;;;;4.50;1.83;;;5.20;99.90;;;;;;5070203;28;20515;-72
2023/12/09 06:00:11;;;;;;;2.13;1.90;;;5.20;99.90;;;;;;5052191;28;20257;-72
2023/12/09 06:02:39;;;;;;;1.80;1.47;;;5.20;99.90;;;;;;5068938;28;20428;-72
2023/12/09 06:05:05;;;;;;;3.43;1.77;;;5.20;99.90;;;;;;5070428;28;20428;-72
2023/12/09 06:07:31;;;;;;;5.17;1.47;;;5.10;99.90;;;;;;5068791;28;20462;-72
2023/12/09 06:09:56;;;;;;;5.03;1.60;;;5.00;99.90;;;;;;5068997;28;20861;-74
2023/12/09 06:12:22;;;;;;;5.10;2.07;;;5.00;99.90;;;;;;5070420;28;20243;-73
2023/12/09 06:14:48;;;;;;;4.40;1.77;;;4.90;99.90;;;;;;5069015;28;20183;-73
2023/12/09 06:17:13;;;;;;;6.53;2.07;;;4.90;99.90;;;;;;5070135;28;20207;-73
2023/12/09 06:19:41;;;;;;;4.57;3.07;;;4.80;99.90;;;;;;5069454;28;20183;-73
2023/12/09 06:22:06;;;;;;;5.20;3.00;;;4.70;99.90;;;;;;5070458;28;20186;-73
2023/12/09 06:24:32;;;;;;;8.00;3.10;;;4.70;99.90;;;;;;5069093;28;21074;-73
2023/12/09 06:26:57;;;;;;;5.77;3.20;;;4.70;99.90;;;;;;5070419;28;20202;-73
2023/12/09 06:29:23;;;;;;;6.00;3.10;;;4.70;99.90;;;;;;5070478;28;20182;-72
2023/12/09 06:31:49;;;;;;;15.10;5.40;;;4.60;99.90;;;;;;5052582;28;20194;-73
2023/12/09 06:34:15;;;;;;;7.43;3.63;;;4.60;99.90;;;;;;5070245;28;21052;-73
2023/12/09 06:36:41;;;;;;;6.50;3.67;;;4.60;99.90;;;;;;5069798;28;20206;-72
2023/12/09 06:39:07;;;;;;;9.40;4.23;;;4.80;99.90;;;;;;5070042;28;20420;-73
2023/12/09 06:41:32;;;;;;;3.40;2.00;;;4.60;99.90;;;;;;5068108;28;20305;-73
2023/12/09 06:43:58;;;;;;;6.73;1.77;;;4.70;99.90;;;;;;5067965;28;20186;-73
2023/12/09 06:46:23;;;;;;;5.83;2.73;;;4.90;99.90;;;;;;5069334;28;20716;-73
2023/12/09 06:48:49;;;;;;;5.13;1.37;;;5.00;99.90;;;;;;5051061;28;20225;-73
2023/12/09 06:51:15;;;;;;;1.60;1.23;;;5.10;99.90;;;;;;5069151;28;20635;-73
2023/12/09 06:53:41;;;;;;;9.13;1.97;;;5.20;99.90;;;;;;5068955;28;20669;-73
2023/12/09 06:56:08;;;;;;;3.67;1.60;;;5.30;99.90;;;;;;5068568;28;20557;-72
2023/12/09 06:58:35;;;;;;;1.83;1.70;;;5.30;99.90;;;;;;5067436;28;20789;-73
2023/12/09 07:01:01;;;;;;;1.20;1.10;;;5.30;99.90;;;;;;5068724;28;20461;-72
2023/12/09 07:03:27;;;;;;;4.13;1.60;;;5.30;99.90;;;;;;5067396;28;20440;-72
2023/12/09 07:05:52;;;;;;;2.13;1.60;;;5.30;99.90;;;;;;5067308;28;21288;-71
2023/12/09 07:08:18;;;;;;;1.60;1.37;;;5.40;99.90;;;;;;5068994;28;20535;-71
2023/12/09 07:10:46;;;;;;;4.47;1.17;;;5.40;99.90;;;;;;5068694;28;20269;-72
2023/12/09 07:13:11;;;;;;;4.00;1.13;;;5.40;99.90;;;;;;5068689;28;20555;-72
2023/12/09 07:15:37;;;;;;;2.30;1.57;;;5.40;99.90;;;;;;5067098;28;20410;-72
2023/12/09 07:18:04;;;;;;;2.70;1.47;;;5.40;99.90;;;;;;5067113;28;20183;-72
2023/12/09 07:20:29;;;;;;;6.07;1.70;;;5.20;99.90;;;;;;5066787;28;20798;-72
2023/12/09 07:22:55;;;;;;;3.00;1.47;;;5.20;99.90;;;;;;5067056;28;20496;-71
2023/12/09 07:25:21;;;;;;;3.77;1.50;;;5.20;99.90;;;;;;5068459;28;20190;-71
2023/12/09 07:27:47;;;;;;;3.73;1.47;;;5.30;99.90;;;;;;5066940;28;20259;-73
2023/12/09 07:30:12;;;;;;;4.87;1.77;;;5.30;99.90;;;;;;5068369;28;20934;-73
2023/12/09 07:32:38;;;;;;;4.30;1.60;;;5.30;99.90;;;;;;5067078;28;20194;-72
2023/12/09 07:35:04;;;;;;;4.07;1.50;;;5.20;99.90;;;;;;5068364;28;20251;-73
2023/12/09 07:37:31;;;;;;;5.13;1.43;;;5.30;99.90;;;;;;5068230;28;20246;-73
2023/12/09 07:39:56;;;;;;;6.07;1.40;;;5.30;99.90;;;;;;5068781;28;20454;-72
2023/12/09 07:42:22;;;;;;;3.17;1.20;;;5.30;99.90;;;;;;5067237;28;20559;-73
2023/12/09 07:44:48;;;;;;;1.70;1.40;;;5.30;99.90;;;;;;5068482;28;20232;-73
2023/12/09 07:47:13;;;;;;;2.83;1.30;;;5.30;99.90;;;;;;5067210;28;20805;-73
2023/12/09 07:49:39;;;;;;;3.47;1.40;;;5.30;99.90;;;;;;5066942;28;20220;-73
2023/12/09 07:52:05;;;;;;;2.60;1.90;;;5.40;99.90;;;;;;5068437;28;20178;-72
2023/12/09 07:54:31;;;;;;;2.90;1.20;;;5.50;99.90;;;;;;5068417;28;20222;-72
2023/12/09 07:56:57;;;;;;;1.50;1.00;;;5.50;99.90;;;;;;5068483;28;21257;-73
2023/12/09 07:59:22;;;;;;;2.40;1.43;;;5.60;99.90;;;;;;5068437;28;20187;-72
2023/12/09 08:01:48;;;;;;;2.17;1.13;;;5.60;99.90;;;;;;5067058;28;20305;-72
2023/12/09 08:04:13;;;;;;;2.13;1.30;;;5.70;99.90;;;;;;5068133;28;20193;-73
2023/12/09 08:06:39;;;;;;;2.07;1.30;;;5.70;99.90;;;;;;5067146;28;20202;-73
2023/12/09 08:09:04;;;;;;;3.20;1.40;;;5.70;99.90;;;;;;5069822;28;20175;-72
2023/12/09 08:11:30;;;;;;;2.37;1.30;;;5.80;99.90;;;;;;5071310;28;20237;-72
2023/12/09 08:13:56;;;;;;;4.40;1.70;;;5.70;99.90;;;;;;5053192;28;20187;-73
2023/12/09 08:16:21;;;;;;;2.93;1.60;;;5.70;99.90;;;;;;5071176;28;20572;-73
2023/12/09 08:18:47;;;;;;;2.03;1.20;;;5.60;99.90;;;;;;5071135;28;20183;-72
2023/12/09 08:21:12;;;;;;;1.77;1.23;;;5.60;99.90;;;;;;5071432;28;21030;-72
2023/12/09 08:23:38;;;;;;;1.80;1.43;;;5.50;99.90;;;;;;5070047;28;20190;-73
2023/12/09 08:26:04;;;;;;;3.07;1.00;;;5.60;99.90;;;;;;5069892;28;20298;-74
2023/12/09 08:28:29;;;;;;;3.73;1.47;;;5.60;99.90;;;;;;5071344;28;20194;-73
2023/12/09 08:30:55;;;;;;;6.87;1.20;;;5.60;99.90;;;;;;5071367;28;20201;-72
2023/12/09 08:33:20;;;;;;;6.70;2.10;;;5.60;99.90;;;;;;5069864;28;20207;-73
2023/12/09 08:35:46;;;;;;;1.77;1.43;;;5.70;99.90;;;;;;5071217;28;20576;-73
2023/12/09 08:38:12;;;;;;;13.57;1.40;;;5.70;99.90;;;;;;5069671;28;20258;-73
2023/12/09 08:40:37;;;;;;;1.50;1.40;;;5.80;99.90;;;;;;5070446;28;20206;-74
2023/12/09 08:43:03;;;;;;;1.33;1.10;;;5.80;99.90;;;;;;5070208;28;20186;-71
2023/12/09 08:45:31;;;;;;;2.80;1.57;;;5.70;99.90;;;;;;5070770;28;20735;-73
2023/12/09 08:47:57;;;;;;;1.40;1.30;;;5.80;99.90;;;;;;5069356;28;20211;-74
2023/12/09 08:50:22;;;;;;;3.03;1.90;;;5.80;99.90;;;;;;5070586;28;20456;-73
2023/12/09 08:52:48;;;;;;;1.53;1.43;;;5.80;99.90;;;;;;5070703;28;20881;-72
2023/12/09 08:55:15;;;;;;;2.37;1.93;;;5.80;99.90;;;;;;5070096;28;20206;-72
2023/12/09 08:57:41;;;;;;;3.33;1.63;;;5.80;99.90;;;;;;5070205;28;20586;-72
2023/12/09 09:00:08;;;;;;;2.17;1.50;;;5.80;99.90;;;;;;5051948;28;20526;-73
2023/12/09 09:02:33;;;;;;;2.73;1.77;;;5.90;99.90;;;;;;5068622;28;20595;-72
2023/12/09 09:04:59;;;;;;;2.70;1.17;;;5.90;99.90;;;;;;5069791;28;20420;-72
2023/12/09 09:07:25;;;;;;;2.20;2.00;;;5.90;99.90;;;;;;5069556;28;20202;-72
2023/12/09 09:09:50;;;;;;;2.60;1.93;;;6.00;99.90;;;;;;5069775;28;20182;-73
2023/12/09 09:12:16;;;;;;;5.53;2.33;;;6.00;99.90;;;;;;5069643;28;20603;-73
2023/12/09 09:14:42;;;;;;;2.13;1.70;;;5.90;99.90;;;;;;5070046;28;20179;-73
2023/12/09 09:17:07;;;;;;;7.53;2.20;;;5.90;99.90;;;;;;5069817;28;20631;-73
2023/12/09 09:19:34;;;;;;;2.53;1.60;;;5.80;99.90;;;;;;5069564;28;20198;-74
2023/12/09 09:21:59;;;;;;;5.60;1.97;;;5.90;99.90;;;;;;5068816;28;20187;-74
2023/12/09 09:24:25;;;;;;;1.80;1.67;;;5.90;99.90;;;;;;5070261;28;20523;-73
2023/12/09 09:26:51;;;;;;;3.67;1.60;;;6.00;99.90;;;;;;5070599;28;20574;-71
2023/12/09 09:29:17;;;;;;;3.73;1.83;;;6.00;99.90;;;;;;5070463;28;20458;-72
2023/12/09 09:31:42;;;;;;;36.63;15.50;;;6.00;99.90;;;;;;5069222;28;20225;-73
2023/12/09 09:34:08;;;;;;;2.10;1.77;;;6.00;99.90;;;;;;5070507;28;20194;-73
2023/12/09 09:36:33;;;;;;;3.40;2.20;;;6.00;99.90;;;;;;5069936;28;20206;-73
2023/12/09 09:38:59;;;;;;;2.20;2.00;;;6.10;99.90;;;;;;5070094;28;20193;-73
2023/12/09 09:41:30;;;;;;;3.00;2.10;;;6.10;99.90;;;;;;5069735;28;20234;-73
2023/12/09 09:44:11;;;;;;;2.37;1.93;;;6.00;99.90;;;;;;5069755;28;20179;-72
2023/12/09 09:46:39;;;;;;;2.33;1.93;;;6.10;99.90;;;;;;5069509;28;20877;-73
2023/12/09 09:49:05;;;;;;;2.43;2.23;;;6.10;99.90;;;;;;5069486;28;20501;-74
2023/12/09 09:51:32;;;;;;;2.20;1.87;;;6.10;99.90;;;;;;5069307;28;20424;-74
2023/12/09 09:54:37;;;;;;;2.63;2.40;;;6.10;99.90;;;;;;5069260;28;20460;-74
2023/12/09 09:57:04;;;;;;;1.90;1.80;;;6.10;99.90;;;;;;5006748;28;20844;-74
2023/12/09 09:59:32;;;;;;;2.40;2.20;;;6.10;99.90;;;;;;5007178;28;20434;-73
2023/12/09 10:01:57;;;;;;;2.40;1.70;;;6.20;99.90;;;;;;5037779;28;20477;-73
2023/12/09 10:04:23;;;;;;;2.43;2.17;;;6.30;99.90;;;;;;5069197;28;21268;-74
2023/12/09 10:06:49;;;;;;;2.47;2.27;;;6.40;99.90;;;;;;5068963;28;20211;-74
2023/12/09 10:09:15;;;;;;;2.47;2.20;;;6.50;99.90;;;;;;5067537;28;20187;-74
2023/12/09 10:11:40;;;;;;;2.40;2.20;;;6.70;99.90;;;;;;5067576;28;20778;-73
2023/12/09 10:14:06;;;;;;;2.30;2.10;;;6.70;99.90;;;;;;5069094;28;20408;-73
2023/12/09 10:16:33;;;;;;;2.33;2.13;;;6.90;99.90;;;;;;5067247;28;20202;-73
2023/12/09 10:19:00;;;;;;;2.33;2.10;;;7.10;99.90;;;;;;5068426;28;20958;-73
2023/12/09 10:21:26;;;;;;;2.97;1.90;;;7.20;99.90;;;;;;5068254;28;20498;-73
2023/12/09 10:23:51;;;;;;;2.70;2.50;;;7.20;99.90;;;;;;5068767;28;20421;-73
2023/12/09 10:26:18;;;;;;;2.40;2.20;;;7.20;99.90;;;;;;5050433;28;20635;-72
2023/12/09 10:28:44;;;;;;;2.30;1.80;;;7.10;99.90;;;;;;5068373;28;20252;-73
2023/12/09 10:31:09;;;;;;;2.37;2.07;;;7.10;99.90;;;;;;5067410;28;20821;-73
2023/12/09 10:33:36;;;;;;;2.63;1.87;;;7.00;99.90;;;;;;5068442;28;20549;-73
2023/12/09 10:36:02;;;;;;;3.13;2.33;;;7.00;99.90;;;;;;5066461;28;20268;-73
2023/12/09 10:38:28;;;;;;;4.23;3.10;;;6.80;99.90;;;;;;5068097;28;20431;-73
2023/12/09 10:40:53;;;;;;;2.40;2.20;;;6.80;99.90;;;;;;5067914;28;20472;-74
2023/12/09 10:43:20;;;;;;;3.17;2.60;;;6.90;99.90;;;;;;5068268;28;20918;-74
2023/12/09 10:45:46;;;;;;;3.77;3.17;;;6.90;99.90;;;;;;5067900;28;20175;-73
2023/12/09 10:48:12;;;;;;;2.93;2.60;;;6.90;99.90;;;;;;5068099;28;20424;-73
2023/12/09 10:50:37;;;;;;;3.10;2.37;;;6.90;99.90;;;;;;5067874;28;20269;-73
2023/12/09 10:53:04;;;;;;;3.13;2.60;;;7.10;99.90;;;;;;5066656;28;20186;-74
2023/12/09 10:55:30;;;;;;;3.70;2.50;;;7.40;99.90;;;;;;5067898;28;20487;-73
2023/12/09 10:57:57;;;;;;;2.40;2.20;;;7.30;99.90;;;;;;5067785;28;20840;-74
2023/12/09 11:00:24;;;;;;;2.27;2.07;;;7.30;99.90;;;;;;5067581;28;20489;-74
2023/12/09 11:02:52;;;;;;;2.30;2.10;;;7.30;99.90;;;;;;5068498;28;20425;-73
2023/12/09 11:05:19;;;;;;;8.90;1.97;;;7.30;99.90;;;;;;5067609;28;20802;-72
2023/12/09 11:07:47;;;;;;;2.30;1.77;;;7.20;99.90;;;;;;5067861;28;21054;-75
2023/12/09 11:10:13;;;;;;;3.67;2.77;;;7.30;99.90;;;;;;5068487;28;20425;-73
2023/12/09 11:12:42;;;;;;;2.23;1.63;;;7.30;99.90;;;;;;5068486;28;21270;-74
2023/12/09 11:15:14;;;;;;;3.40;2.23;;;7.50;99.90;;;;;;5067996;28;20422;-73
2023/12/09 11:17:43;;;;;;;2.10;1.90;;;7.60;99.90;;;;;;5068486;28;20807;-74
2023/12/09 11:20:10;;;;;;;2.17;1.73;;;7.60;99.90;;;;;;5067182;28;20532;-74
2023/12/09 11:22:40;;;;;;;2.67;2.10;;;7.50;99.90;;;;;;5066184;28;20517;-74
2023/12/09 11:25:08;;;;;;;3.40;2.40;;;7.60;99.90;;;;;;5067432;28;21006;-74
2023/12/09 11:27:39;;;;;;;1.87;1.77;;;7.40;99.90;;;;;;5067247;28;21149;-73
2023/12/09 11:30:26;;;;;;;2.50;2.03;;;7.60;99.90;;;;;;5067310;28;20795;-74
2023/12/09 11:32:52;;;;;;;2.60;2.03;;;7.60;99.90;;;;;;5067091;28;21013;-73
2023/12/09 11:35:17;;;;;;;4.50;2.73;;;7.40;99.90;;;;;;5067376;28;20504;-73
2023/12/09 11:37:43;;;;;;;2.97;2.20;;;7.10;99.90;;;;;;5067124;28;20517;-74
2023/12/09 11:40:09;;;;;;;4.50;2.70;;;7.10;99.90;;;;;;5048719;28;20283;-73
2023/12/09 11:42:36;;;;;;;4.10;2.77;;;7.00;99.90;;;;;;5066917;28;20207;-73
2023/12/09 11:45:03;;;;;;;3.70;2.93;;;6.90;99.90;;;;;;5065652;28;20429;-74
2023/12/09 11:47:30;;;;;;;2.50;2.30;;;6.80;99.90;;;;;;5048869;28;20458;-75
2023/12/09 11:49:57;;;;;;;4.03;2.73;;;6.90;99.90;;;;;;5066992;28;20422;-74
2023/12/09 11:52:23;;;;;;;3.47;2.47;;;6.90;99.90;;;;;;5066028;28;20895;-73
2023/12/09 11:54:59;;;;;;;4.90;3.40;;;6.90;99.90;;;;;;5065111;28;20464;-74
2023/12/09 11:57:27;;;;;;;4.30;3.30;;;6.80;99.90;;;;;;5067267;28;20428;-74
2023/12/09 11:59:53;;;;;;;3.63;2.70;;;6.90;99.90;;;;;;5066820;28;20939;-74
2023/12/09 12:02:19;;;;;;;3.77;2.93;;;6.90;99.90;;;;;;5066960;28;20425;-74
2023/12/09 12:04:45;;;;;;;3.40;3.07;;;7.00;99.90;;;;;;5048580;28;20625;-73
2023/12/09 12:07:10;;;;;;;5.53;3.97;;;7.00;99.90;;;;;;5066965;28;20457;-74
2023/12/09 12:09:38;;;;;;;4.40;3.70;;;7.00;99.90;;;;;;5065436;28;20237;-74
2023/12/09 12:12:05;;;;;;;4.83;2.97;;;7.10;99.90;;;;;;5065388;28;20187;-74
2023/12/09 12:14:31;;;;;;;5.40;3.40;;;7.10;99.90;;;;;;5065410;28;20429;-74
2023/12/09 12:17:00;;;;;;;4.40;3.70;;;7.10;99.90;;;;;;5066823;28;20943;-74
2023/12/09 12:19:27;;;;;;;6.17;4.57;;;7.10;99.90;;;;;;5065376;28;20428;-74
2023/12/09 12:21:53;;;;;;;6.13;4.57;;;7.10;99.90;;;;;;5066564;28;20465;-74
2023/12/09 12:24:19;;;;;;;7.13;3.67;;;7.20;99.90;;;;;;5065596;28;20425;-72
2023/12/09 12:26:45;;;;;;;5.13;3.70;;;7.30;99.90;;;;;;5066721;28;20494;-74
2023/12/09 12:29:17;;;;;;;3.63;3.27;;;7.20;99.90;;;;;;5065436;28;20581;-74
2023/12/09 12:31:42;;;;;;;6.80;3.43;;;7.20;99.90;;;;;;5065352;28;20172;-74
2023/12/09 12:34:18;;;;;;;6.20;3.70;;;7.30;99.90;;;;;;5066757;28;20429;-74
2023/12/09 12:36:46;;;;;;;6.90;4.07;;;7.50;99.90;;;;;;5066780;28;20202;-74
2023/12/09 12:39:12;;;;;;;4.93;3.80;;;7.40;99.90;;;;;;5066654;28;20455;-74
2023/12/09 12:41:38;;;;;;;4.83;3.80;;;7.20;99.90;;;;;;5066561;28;20885;-74
2023/12/09 12:44:05;;;;;;;3.50;2.70;;;7.10;99.90;;;;;;5066726;28;20422;-73
2023/12/09 12:46:31;;;;;;;3.50;2.63;;;7.00;99.90;;;;;;5066694;28;20962;-74
2023/12/09 12:48:57;;;;;;;4.37;3.47;;;7.10;99.90;;;;;;5064984;28;20447;-74
2023/12/09 12:51:23;;;;;;;3.27;2.80;;;7.30;99.90;;;;;;5064976;28;20425;-75